Time;durP1;ratioP1;P1;durP2;ratioP2;P2;SDS_P1;SDS_P2;PMS_P1;PMS_P2;Temp;Humidity;BMP_temperature;BMP_pressure;BME280_temperature;BME280_humidity;BME280_pressure;Samples;Min_cycle;Max_cycle;Signal;HPM_P1;HPM_P2
2023/12/11 08:49:31;;;;;;;60.70;45.13;;;5.20;99.90;;;;;;5069041;28;20376;-64
2023/12/11 08:52:02;;;;;;;52.60;42.38;;;6.10;99.90;;;;;;5050057;28;20067;-62
2023/12/11 08:54:28;;;;;;;56.10;42.53;;;6.70;99.90;;;;;;5054699;28;20024;-63
2023/12/11 08:56:53;;;;;;;53.90;42.72;;;7.00;99.90;;;;;;5068318;28;20032;-67
2023/12/11 08:59:20;;;;;;;58.92;44.60;;;7.00;99.90;;;;;;5063714;28;20430;-66
2023/12/11 09:01:46;;;;;;;50.70;41.42;;;7.30;99.90;;;;;;5069309;28;20078;-64
2023/12/11 09:04:12;;;;;;;124.13;92.70;;;8.00;99.90;;;;;;5069518;28;20478;-68
2023/12/11 09:06:38;;;;;;;111.63;82.80;;;8.60;99.90;;;;;;5030017;28;20091;-66
2023/12/11 09:09:04;;;;;;;81.07;65.63;;;8.80;99.90;;;;;;5034490;28;20030;-65
2023/12/11 09:11:30;;;;;;;81.63;64.50;;;9.10;99.90;;;;;;5064701;28;20113;-67
2023/12/11 09:13:56;;;;;;;68.93;60.78;;;9.70;99.90;;;;;;5047468;28;20037;-64
2023/12/11 09:16:22;;;;;;;60.90;54.15;;;10.30;96.50;;;;;;5047369;28;20475;-65
2023/12/11 09:18:48;;;;;;;72.35;59.88;;;10.90;94.30;;;;;;5033476;28;20018;-65
2023/12/11 09:21:13;;;;;;;74.82;63.50;;;11.40;85.00;;;;;;5036292;28;20030;-63
2023/12/11 09:23:59;;;;;;;79.85;68.60;;;11.80;75.80;;;;;;5039432;28;20024;-64
2023/12/11 09:26:25;;;;;;;75.38;66.90;;;12.10;73.60;;;;;;5025962;28;20112;-62
2023/12/11 09:28:58;;;;;;;77.95;69.53;;;12.30;72.30;;;;;;5031635;28;20168;-69
2023/12/11 09:31:24;;;;;;;85.75;76.57;;;12.50;67.10;;;;;;5065690;28;20035;-69
2023/12/11 09:33:50;;;;;;;80.82;72.22;;;12.30;62.60;;;;;;5067352;28;20035;-63
2023/12/11 09:36:15;;;;;;;85.55;76.20;;;11.90;64.70;;;;;;5042812;28;20034;-64
2023/12/11 09:38:42;;;;;;;74.50;66.72;;;12.00;68.30;;;;;;5047286;28;20022;-64
2023/12/11 09:41:08;;;;;;;70.72;63.05;;;12.00;68.30;;;;;;5046034;28;20025;-70
2023/12/11 09:43:36;;;;;;;70.35;62.83;;;12.20;67.50;;;;;;5031616;28;20041;-73
2023/12/11 09:46:08;;;;;;;65.53;58.70;;;12.30;65.80;;;;;;5027434;28;20022;-68
2023/12/11 09:48:33;;;;;;;65.50;58.58;;;12.50;63.80;;;;;;5044067;28;20049;-64
2023/12/11 09:51:01;;;;;;;100.18;88.55;;;12.60;62.80;;;;;;5056924;28;20033;-66
2023/12/11 09:53:30;;;;;;;83.05;74.35;;;12.80;62.50;;;;;;5048080;28;20018;-63
2023/12/11 09:55:57;;;;;;;85.22;76.13;;;12.70;63.00;;;;;;5046575;28;20017;-67
2023/12/11 09:58:23;;;;;;;81.05;72.57;;;12.80;64.30;;;;;;5052863;28;20033;-64
2023/12/11 10:00:49;;;;;;;80.75;72.25;;;13.00;62.50;;;;;;5046937;28;20025;-63
2023/12/11 10:03:15;;;;;;;82.53;73.85;;;13.10;61.80;;;;;;5034413;28;20029;-69
2023/12/11 10:05:41;;;;;;;79.13;71.00;;;13.30;62.30;;;;;;5033604;28;20025;-70
2023/12/11 10:08:07;;;;;;;82.32;73.90;;;13.50;59.90;;;;;;5034607;28;20029;-69
2023/12/11 10:10:33;;;;;;;81.50;73.25;;;13.70;59.60;;;;;;5021392;28;20031;-64
2023/12/11 10:13:01;;;;;;;80.32;72.35;;;13.90;59.20;;;;;;5035690;28;20107;-68
2023/12/11 10:15:31;;;;;;;80.43;72.45;;;14.00;59.50;;;;;;5035780;28;20026;-65
2023/12/11 10:18:03;;;;;;;82.63;74.05;;;14.20;58.40;;;;;;5036025;28;20037;-65
2023/12/11 10:20:29;;;;;;;76.00;68.38;;;14.40;58.10;;;;;;5048385;28;20040;-66
2023/12/11 10:22:56;;;;;;;71.65;64.47;;;14.60;59.40;;;;;;5035561;28;20034;-68
2023/12/11 10:25:29;;;;;;;65.88;59.55;;;14.70;58.30;;;;;;5034829;28;20026;-71
2023/12/11 10:28:24;;;;;;;71.68;64.45;;;14.90;56.40;;;;;;5021907;28;20017;-68
2023/12/11 10:30:59;;;;;;;70.18;63.35;;;15.00;57.20;;;;;;5028893;28;20036;-69
2023/12/11 10:33:26;;;;;;;69.03;62.28;;;15.10;56.60;;;;;;5047400;28;20021;-68
2023/12/11 10:36:03;;;;;;;73.05;65.95;;;15.10;56.50;;;;;;5030431;28;20025;-69
2023/12/11 10:38:28;;;;;;;72.43;65.00;;;15.30;54.60;;;;;;5031029;28;20033;-66
2023/12/11 10:40:55;;;;;;;68.53;61.70;;;15.50;54.40;;;;;;5045985;28;20100;-65
2023/12/11 10:43:26;;;;;;;71.60;64.50;;;15.60;54.00;;;;;;5033141;28;20037;-68
2023/12/11 10:45:52;;;;;;;72.30;65.25;;;15.70;53.40;;;;;;5044396;28;20442;-66
2023/12/11 10:48:19;;;;;;;75.40;67.85;;;16.00;52.10;;;;;;5035520;28;20145;-68
2023/12/11 10:50:49;;;;;;;88.43;79.05;;;16.10;50.50;;;;;;5032450;28;20029;-67
2023/12/11 10:53:16;;;;;;;75.40;68.05;;;16.20;53.10;;;;;;5033005;28;20036;-64
2023/12/11 10:55:42;;;;;;;76.97;69.22;;;16.20;53.10;;;;;;5038418;28;20061;-63
2023/12/11 10:58:08;;;;;;;81.38;73.47;;;16.30;52.40;;;;;;5046694;28;20021;-67
2023/12/11 11:00:36;;;;;;;80.78;72.90;;;16.40;51.10;;;;;;5054035;28;20032;-72
2023/12/11 11:03:06;;;;;;;91.95;82.85;;;16.50;53.00;;;;;;5047560;28;20088;-73
2023/12/11 11:05:32;;;;;;;84.47;75.78;;;16.60;52.50;;;;;;5052546;28;20025;-67
2023/12/11 11:08:15;;;;;;;84.75;76.45;;;16.30;51.60;;;;;;5052368;28;20025;-63
2023/12/11 11:10:51;;;;;;;80.45;72.22;;;16.00;53.60;;;;;;5043885;28;20031;-69
2023/12/11 11:13:23;;;;;;;61.38;55.17;;;16.00;52.60;;;;;;5043622;28;20025;-66
2023/12/11 11:15:57;;;;;;;55.25;49.60;;;16.00;53.80;;;;;;5043174;28;20025;-66
2023/12/11 11:18:27;;;;;;;48.60;43.78;;;16.00;54.50;;;;;;5012786;28;20084;-62
2023/12/11 11:21:10;;;;;;;41.05;36.90;;;16.20;52.30;;;;;;5052523;28;20029;-64
2023/12/11 11:23:45;;;;;;;51.95;46.58;;;16.40;49.80;;;;;;5041467;28;20096;-64
2023/12/11 11:26:32;;;;;;;57.17;51.17;;;16.50;49.50;;;;;;5037411;28;20685;-64
2023/12/11 11:28:57;;;;;;;37.45;33.45;;;16.20;47.70;;;;;;5051180;28;20155;-64
2023/12/11 11:31:50;;;;;;;31.48;28.38;;;15.60;48.70;;;;;;5042738;28;20097;-62
2023/12/11 11:34:43;;;;;;;42.45;38.05;;;15.20;50.50;;;;;;5048206;28;20490;-64
2023/12/11 11:37:17;;;;;;;40.70;36.35;;;15.20;50.50;;;;;;5043520;28;20055;-64
2023/12/11 11:39:58;;;;;;;35.53;30.95;;;15.00;51.70;;;;;;5043010;28;20047;-66
2023/12/11 11:42:25;;;;;;;29.92;26.92;;;14.90;51.70;;;;;;5011029;28;20026;-65
2023/12/11 11:45:02;;;;;;;31.98;28.65;;;14.90;51.50;;;;;;5033697;28;20119;-66
2023/12/11 11:47:29;;;;;;;32.70;28.95;;;15.00;49.80;;;;;;5014813;28;20088;-64
2023/12/11 11:50:16;;;;;;;33.40;29.77;;;15.00;49.70;;;;;;5032404;28;20525;-60
2023/12/11 11:52:43;;;;;;;35.92;32.10;;;15.10;50.90;;;;;;5036625;28;20449;-64
2023/12/11 11:55:25;;;;;;;41.10;36.78;;;15.10;49.20;;;;;;5047403;28;20479;-59
2023/12/11 11:57:52;;;;;;;37.38;33.65;;;15.20;49.40;;;;;;5032292;28;20044;-65
2023/12/11 12:00:28;;;;;;;51.47;45.33;;;15.10;49.70;;;;;;5052434;28;20039;-60
2023/12/11 12:03:04;;;;;;;39.63;35.58;;;14.90;50.10;;;;;;5051815;28;20021;-61
2023/12/11 12:05:37;;;;;;;90.35;76.75;;;14.50;50.80;;;;;;5046661;28;20423;-67
2023/12/11 12:08:08;;;;;;;94.38;80.43;;;14.20;53.20;;;;;;5024524;28;20030;-68
2023/12/11 12:10:34;;;;;;;74.47;64.85;;;14.00;52.60;;;;;;5024075;28;20091;-63
2023/12/11 12:13:01;;;;;;;80.10;67.13;;;14.10;54.60;;;;;;5028383;28;20056;-67
2023/12/11 12:15:27;;;;;;;69.38;61.75;;;14.30;53.80;;;;;;5030326;28;20026;-69
2023/12/11 12:17:53;;;;;;;59.25;52.92;;;14.60;58.90;;;;;;5031411;28;20075;-64
2023/12/11 12:20:22;;;;;;;68.30;61.08;;;15.10;54.00;;;;;;5032339;28;20518;-64
2023/12/11 12:23:04;;;;;;;71.93;64.18;;;15.60;55.30;;;;;;5030329;28;20021;-65
2023/12/11 12:25:31;;;;;;;175.95;135.52;;;15.90;53.00;;;;;;5032223;28;20026;-64
2023/12/11 12:28:06;;;;;;;103.85;92.72;;;15.60;52.20;;;;;;5031615;28;20025;-65
2023/12/11 12:30:33;;;;;;;115.25;103.35;;;14.80;54.00;;;;;;5033166;28;20021;-62
2023/12/11 12:33:00;;;;;;;124.45;111.38;;;14.30;56.20;;;;;;5033173;28;20074;-64
2023/12/11 12:35:27;;;;;;;108.35;97.22;;;14.00;57.00;;;;;;5032696;28;20091;-67
2023/12/11 12:37:55;;;;;;;85.43;76.70;;;13.70;58.90;;;;;;5033123;28;20029;-66
2023/12/11 12:40:21;;;;;;;76.97;68.88;;;13.40;60.30;;;;;;5033457;28;20490;-65
2023/12/11 12:42:47;;;;;;;61.55;55.10;;;13.20;60.90;;;;;;5032034;28;20048;-67
2023/12/11 12:45:25;;;;;;;62.67;56.20;;;13.00;62.90;;;;;;5032955;28;20479;-62
2023/12/11 12:47:50;;;;;;;55.60;49.60;;;12.80;63.90;;;;;;5032511;28;20064;-66
2023/12/11 12:50:23;;;;;;;56.53;50.42;;;12.70;67.90;;;;;;5032719;28;20030;-65
2023/12/11 12:52:49;;;;;;;66.35;58.58;;;12.40;71.80;;;;;;5030943;28;20021;-62
2023/12/11 12:55:15;;;;;;;76.78;65.70;;;12.20;76.20;;;;;;5030007;28;20037;-66
2023/12/11 12:57:44;;;;;;;55.00;46.85;;;12.00;80.00;;;;;;5030854;28;20033;-66
2023/12/11 13:00:20;;;;;;;60.40;52.30;;;12.10;80.00;;;;;;5029506;28;20097;-62
2023/12/11 13:02:49;;;;;;;61.58;54.47;;;12.20;79.40;;;;;;5029713;28;20025;-64
2023/12/11 13:05:15;;;;;;;78.95;69.95;;;12.30;78.00;;;;;;5031265;28;20049;-65
2023/12/11 13:07:41;;;;;;;102.75;88.50;;;12.20;80.10;;;;;;5030654;28;20390;-63
2023/12/11 13:10:17;;;;;;;100.22;86.57;;;12.20;79.20;;;;;;5030475;28;20021;-63
2023/12/11 13:12:43;;;;;;;60.17;51.30;;;12.20;81.20;;;;;;5027750;28;20057;-63
2023/12/11 13:15:09;;;;;;;62.85;51.05;;;12.20;79.90;;;;;;5028036;28;20470;-65
2023/12/11 13:17:35;;;;;;;52.28;44.80;;;12.10;80.30;;;;;;5029444;28;20053;-64
2023/12/11 13:20:03;;;;;;;48.95;41.67;;;12.00;82.20;;;;;;5029944;28;20068;-65
2023/12/11 13:22:29;;;;;;;58.47;51.15;;;12.00;81.20;;;;;;5031612;28;20108;-61
2023/12/11 13:24:54;;;;;;;54.58;48.60;;;11.90;83.30;;;;;;5031042;28;20141;-64
2023/12/11 13:27:25;;;;;;;75.32;63.35;;;11.90;81.20;;;;;;5032643;28;20025;-63
2023/12/11 13:29:50;;;;;;;80.07;67.18;;;11.70;85.30;;;;;;5032551;28;20084;-64
2023/12/11 13:32:16;;;;;;;71.68;59.08;;;11.70;85.80;;;;;;5032663;28;20026;-65
2023/12/11 13:34:42;;;;;;;50.97;42.25;;;11.60;87.40;;;;;;5033849;28;20025;-65
2023/12/11 13:37:07;;;;;;;58.22;46.17;;;11.50;87.50;;;;;;5036360;28;20533;-60
2023/12/11 13:39:33;;;;;;;98.75;74.60;;;11.30;88.20;;;;;;5036446;28;20021;-64
2023/12/11 13:41:59;;;;;;;88.30;73.00;;;11.20;90.00;;;;;;5036356;28;20104;-65
2023/12/11 13:44:24;;;;;;;78.85;65.20;;;11.10;90.40;;;;;;5036106;28;20029;-61
2023/12/11 13:46:50;;;;;;;95.88;78.43;;;10.90;91.70;;;;;;5034309;28;20105;-64
2023/12/11 13:49:16;;;;;;;84.60;67.43;;;10.70;93.50;;;;;;5034302;28;20038;-62
2023/12/11 13:51:42;;;;;;;57.00;49.50;;;10.50;95.00;;;;;;5033502;28;20370;-66
2023/12/11 13:54:07;;;;;;;58.72;49.78;;;10.20;96.80;;;;;;5035625;28;20025;-68
2023/12/11 13:56:33;;;;;;;64.38;54.05;;;10.00;98.60;;;;;;5035656;28;20063;-66
2023/12/11 13:58:59;;;;;;;75.13;59.30;;;9.70;99.90;;;;;;5035962;28;20104;-65
2023/12/11 14:01:25;;;;;;;81.25;62.10;;;9.50;99.90;;;;;;5035922;28;20033;-58
2023/12/11 14:03:52;;;;;;;59.22;47.83;;;9.50;99.90;;;;;;5036055;28;20434;-61
2023/12/11 14:06:17;;;;;;;53.35;44.70;;;9.50;99.90;;;;;;5035978;28;20025;-64
2023/12/11 14:08:43;;;;;;;43.92;36.72;;;9.50;99.90;;;;;;5035785;28;20448;-60
2023/12/11 14:11:09;;;;;;;37.42;31.20;;;9.40;99.90;;;;;;5035669;28;20028;-64
2023/12/11 14:13:34;;;;;;;37.20;30.33;;;9.50;99.90;;;;;;5035820;28;20044;-69
2023/12/11 14:16:00;;;;;;;46.85;39.70;;;9.50;99.90;;;;;;5034409;28;20033;-66
2023/12/11 14:18:26;;;;;;;60.63;48.10;;;9.50;99.90;;;;;;5035902;28;20051;-68
2023/12/11 14:20:51;;;;;;;54.53;42.20;;;9.50;99.90;;;;;;5035751;28;20026;-62
2023/12/11 14:23:18;;;;;;;54.03;40.97;;;9.50;99.90;;;;;;5035581;28;20070;-65
2023/12/11 14:25:44;;;;;;;50.47;42.03;;;9.60;99.90;;;;;;5035450;28;20025;-65
2023/12/11 14:28:10;;;;;;;71.40;57.53;;;9.70;99.90;;;;;;5035628;28;20033;-63
2023/12/11 14:30:36;;;;;;;63.15;52.20;;;9.70;99.90;;;;;;5035442;28;20024;-65
2023/12/11 14:33:07;;;;;;;42.33;36.45;;;9.70;99.90;;;;;;5035341;28;20049;-62
2023/12/11 14:35:33;;;;;;;53.92;42.53;;;9.70;99.90;;;;;;5035477;28;20037;-65
2023/12/11 14:37:59;;;;;;;47.88;40.45;;;9.50;99.90;;;;;;5035255;28;20052;-66
2023/12/11 14:40:25;;;;;;;43.20;37.85;;;9.40;99.90;;;;;;5033854;28;20393;-68
2023/12/11 14:42:50;;;;;;;48.17;40.90;;;9.30;99.90;;;;;;5035274;28;20493;-66
2023/12/11 14:45:19;;;;;;;50.22;41.97;;;9.20;99.90;;;;;;5035109;28;20026;-66
2023/12/11 14:47:45;;;;;;;54.10;43.17;;;9.30;99.90;;;;;;5034803;28;20041;-59
2023/12/11 14:50:11;;;;;;;49.63;40.03;;;9.40;99.90;;;;;;5035162;28;20108;-65
2023/12/11 14:52:36;;;;;;;45.90;39.50;;;9.50;99.90;;;;;;5035093;28;20056;-62
2023/12/11 14:55:03;;;;;;;40.25;35.35;;;9.60;99.90;;;;;;5034750;28;20032;-63
2023/12/11 14:57:28;;;;;;;54.33;42.53;;;9.70;99.90;;;;;;5035008;28;20026;-65
2023/12/11 14:59:54;;;;;;;48.47;41.55;;;9.90;99.90;;;;;;5035009;28;20373;-60
2023/12/11 15:02:20;;;;;;;45.65;38.63;;;9.80;99.90;;;;;;5034857;28;20029;-60
2023/12/11 15:04:46;;;;;;;77.43;59.08;;;9.80;99.90;;;;;;5035340;28;20180;-63
2023/12/11 15:07:11;;;;;;;73.40;56.92;;;9.90;99.90;;;;;;5034799;28;20029;-64
2023/12/11 15:09:39;;;;;;;91.43;76.20;;;9.80;99.90;;;;;;5034558;28;20083;-65
2023/12/11 15:12:06;;;;;;;69.78;56.33;;;9.70;99.90;;;;;;5034722;28;20364;-64
2023/12/11 15:14:32;;;;;;;59.25;50.65;;;9.70;99.90;;;;;;5034598;28;20075;-67
2023/12/11 15:16:58;;;;;;;78.75;61.42;;;9.80;99.90;;;;;;5034488;28;20120;-63
2023/12/11 15:19:24;;;;;;;80.03;63.00;;;10.00;99.90;;;;;;5034451;28;20460;-64
2023/12/11 15:21:49;;;;;;;68.72;54.38;;;9.80;99.90;;;;;;5034538;28;20104;-65
2023/12/11 15:24:15;;;;;;;98.93;76.30;;;9.90;99.90;;;;;;5034322;28;20148;-63
2023/12/11 15:26:41;;;;;;;87.82;70.55;;;9.90;99.70;;;;;;5034314;28;20108;-62
2023/12/11 15:29:07;;;;;;;96.20;75.22;;;9.90;99.80;;;;;;5034320;28;20479;-67
2023/12/11 15:31:33;;;;;;;88.70;70.82;;;9.90;99.90;;;;;;5034297;28;20022;-65
2023/12/11 15:33:59;;;;;;;90.28;73.30;;;9.90;99.90;;;;;;5034179;28;20144;-63
2023/12/11 15:36:25;;;;;;;129.52;100.30;;;10.00;99.60;;;;;;5034252;28;20108;-63
2023/12/11 15:38:51;;;;;;;150.60;113.60;;;9.90;99.60;;;;;;5033870;28;20029;-63
2023/12/11 15:41:17;;;;;;;124.53;100.82;;;9.80;99.90;;;;;;5034041;28;20026;-62
2023/12/11 15:43:46;;;;;;;121.53;98.18;;;9.80;99.90;;;;;;5033233;28;20383;-63
2023/12/11 15:46:13;;;;;;;134.93;105.57;;;9.80;99.90;;;;;;5034043;28;20459;-65
2023/12/11 15:48:49;;;;;;;270.60;211.43;;;9.90;99.90;;;;;;5033736;28;20084;-65
2023/12/11 15:51:17;;;;;;;284.10;231.80;;;10.00;99.90;;;;;;5033983;28;20057;-68
2023/12/11 15:53:46;;;;;;;258.15;205.70;;;9.70;99.90;;;;;;5033886;28;20029;-63
2023/12/11 15:56:15;;;;;;;263.95;212.30;;;9.50;99.90;;;;;;5033999;28;20025;-65
2023/12/11 15:58:41;;;;;;;227.10;172.50;;;9.50;99.90;;;;;;5033322;28;20029;-60
2023/12/11 16:01:09;;;;;;;194.20;156.57;;;9.60;99.90;;;;;;5033780;28;20029;-63
2023/12/11 16:03:35;;;;;;;173.75;141.43;;;9.60;99.90;;;;;;5033883;28;20057;-61
2023/12/11 16:06:02;;;;;;;180.63;144.60;;;9.60;99.90;;;;;;5033758;28;20026;-66
2023/12/11 16:08:28;;;;;;;172.70;134.98;;;9.70;99.90;;;;;;5033441;28;20084;-59
2023/12/11 16:10:57;;;;;;;165.80;132.13;;;9.80;99.90;;;;;;5034166;28;20025;-68
2023/12/11 16:13:23;;;;;;;165.63;126.25;;;9.90;99.90;;;;;;5033599;28;20029;-67
2023/12/11 16:15:49;;;;;;;158.85;122.90;;;10.00;99.70;;;;;;5033613;28;20025;-61
2023/12/11 16:18:15;;;;;;;144.20;112.97;;;9.70;99.90;;;;;;5033425;28;20056;-62
2023/12/11 16:20:41;;;;;;;135.20;107.32;;;9.60;99.90;;;;;;5032129;28;20037;-68
2023/12/11 16:23:08;;;;;;;113.20;90.95;;;9.40;99.90;;;;;;5033281;28;20032;-65
2023/12/11 16:25:34;;;;;;;102.57;84.40;;;9.40;99.90;;;;;;5033356;28;20045;-61
2023/12/11 16:28:00;;;;;;;90.63;75.07;;;9.50;99.90;;;;;;5033348;28;20025;-62
2023/12/11 16:30:26;;;;;;;83.25;68.18;;;9.70;99.90;;;;;;5033275;28;20391;-61
2023/12/11 16:32:51;;;;;;;75.13;62.10;;;9.80;99.90;;;;;;5033249;28;20022;-68
2023/12/11 16:35:17;;;;;;;67.30;56.28;;;9.90;99.90;;;;;;5033431;28;20021;-62
2023/12/11 16:37:42;;;;;;;62.30;51.00;;;9.90;98.90;;;;;;5033044;28;20498;-63
2023/12/11 16:40:08;;;;;;;56.30;47.65;;;10.00;98.10;;;;;;5033108;28;20030;-62
2023/12/11 16:42:34;;;;;;;49.22;42.45;;;10.00;98.20;;;;;;5033158;28;20026;-63
2023/12/11 16:45:01;;;;;;;51.60;43.47;;;10.00;97.50;;;;;;5033154;28;20442;-60
2023/12/11 16:47:28;;;;;;;48.67;41.72;;;10.10;97.30;;;;;;5032772;28;20061;-64
2023/12/11 16:49:55;;;;;;;50.53;41.55;;;10.10;97.20;;;;;;5033163;28;20021;-65
2023/12/11 16:52:20;;;;;;;52.92;40.92;;;10.10;97.70;;;;;;5033159;28;20095;-66
2023/12/11 16:54:46;;;;;;;50.20;40.65;;;10.10;98.00;;;;;;5033071;28;20052;-62
2023/12/11 16:57:12;;;;;;;53.92;42.67;;;10.10;97.30;;;;;;5033266;28;20027;-65
2023/12/11 16:59:37;;;;;;;53.67;40.97;;;10.10;97.40;;;;;;5032976;28;20030;-66
2023/12/11 17:02:03;;;;;;;49.33;39.17;;;10.00;97.90;;;;;;5033003;28;20057;-62
2023/12/11 17:04:29;;;;;;;50.42;40.58;;;10.00;98.40;;;;;;5032899;28;20108;-63
2023/12/11 17:06:55;;;;;;;51.58;40.10;;;10.10;98.10;;;;;;5032814;28;20440;-59
2023/12/11 17:09:21;;;;;;;64.00;48.83;;;10.10;98.80;;;;;;5033649;28;20481;-60
2023/12/11 17:11:47;;;;;;;68.88;51.50;;;10.10;97.60;;;;;;5036906;28;20020;-66
2023/12/11 17:14:13;;;;;;;108.43;82.05;;;10.00;98.10;;;;;;5036945;28;20099;-65
2023/12/11 17:16:40;;;;;;;78.43;61.13;;;9.90;99.90;;;;;;5036932;28;20481;-64
2023/12/11 17:19:06;;;;;;;84.43;65.47;;;9.80;99.90;;;;;;5036643;28;20032;-60
2023/12/11 17:21:32;;;;;;;84.18;66.80;;;9.80;99.90;;;;;;5036620;28;20033;-63
2023/12/11 17:23:58;;;;;;;120.20;90.68;;;9.80;99.90;;;;;;5036760;28;20030;-67
2023/12/11 17:26:24;;;;;;;126.70;96.57;;;9.80;99.90;;;;;;5036603;28;20026;-64
2023/12/11 17:28:51;;;;;;;109.13;82.63;;;9.80;99.90;;;;;;5036660;28;20036;-65
2023/12/11 17:31:17;;;;;;;104.00;79.65;;;9.70;99.90;;;;;;5036635;28;20025;-63
2023/12/11 17:33:42;;;;;;;98.00;79.57;;;9.80;99.90;;;;;;5036526;28;20372;-59
2023/12/11 17:36:10;;;;;;;89.35;69.93;;;9.80;99.90;;;;;;5036639;28;20061;-63
2023/12/11 17:38:36;;;;;;;104.88;81.32;;;9.80;99.90;;;;;;5036516;28;20036;-64
2023/12/11 17:41:02;;;;;;;94.20;71.07;;;9.80;99.90;;;;;;5036725;28;20391;-64
2023/12/11 17:43:28;;;;;;;83.93;67.10;;;9.80;99.90;;;;;;5036290;28;20022;-63
2023/12/11 17:45:53;;;;;;;103.40;82.43;;;9.80;99.90;;;;;;5036363;28;20387;-66
2023/12/11 17:48:19;;;;;;;86.63;67.93;;;9.80;99.90;;;;;;5035958;28;20037;-63
2023/12/11 17:50:46;;;;;;;73.88;59.85;;;9.80;99.90;;;;;;5036156;28;20086;-61
2023/12/11 17:53:13;;;;;;;88.50;69.03;;;9.90;99.90;;;;;;5036227;28;20100;-63
2023/12/11 17:55:38;;;;;;;70.18;56.38;;;9.80;99.90;;;;;;5036239;28;20022;-62
2023/12/11 17:58:04;;;;;;;87.47;66.93;;;9.70;99.90;;;;;;5035989;28;20030;-68
2023/12/11 18:00:30;;;;;;;80.97;65.55;;;9.80;99.90;;;;;;5036158;28;20499;-65
2023/12/11 18:02:56;;;;;;;79.65;59.65;;;9.70;99.90;;;;;;5035986;28;20021;-60
2023/12/11 18:05:22;;;;;;;71.78;55.75;;;9.70;99.90;;;;;;5035846;28;20027;-64
2023/12/11 18:07:48;;;;;;;67.97;54.55;;;9.70;99.90;;;;;;5035920;28;20029;-65
2023/12/11 18:10:17;;;;;;;60.20;49.95;;;9.70;99.90;;;;;;5035923;28;20033;-62
2023/12/11 18:12:43;;;;;;;63.88;52.40;;;9.80;99.90;;;;;;5035804;28;20067;-61
2023/12/11 18:15:10;;;;;;;62.67;50.38;;;9.80;99.90;;;;;;5035812;28;20491;-63
2023/12/11 18:17:37;;;;;;;70.60;55.92;;;9.90;99.90;;;;;;5035448;28;20022;-67
2023/12/11 18:20:04;;;;;;;59.38;48.67;;;9.90;99.90;;;;;;5035277;28;20483;-63
2023/12/11 18:22:30;;;;;;;58.50;47.50;;;9.90;99.90;;;;;;5035779;28;20079;-65
2023/12/11 18:24:56;;;;;;;52.38;42.90;;;9.90;99.90;;;;;;5035898;28;20022;-65
2023/12/11 18:27:21;;;;;;;48.17;40.88;;;10.00;99.90;;;;;;5035465;28;20476;-64
2023/12/11 18:29:47;;;;;;;47.35;40.10;;;10.00;99.90;;;;;;5035297;28;20021;-65
2023/12/11 18:32:14;;;;;;;55.45;44.45;;;10.00;99.90;;;;;;5035471;28;20482;-63
2023/12/11 18:34:40;;;;;;;50.05;41.83;;;10.00;99.90;;;;;;5035736;28;20061;-61
2023/12/11 18:37:06;;;;;;;56.15;45.67;;;10.00;99.90;;;;;;5035288;28;20530;-64
2023/12/11 18:39:32;;;;;;;47.55;39.42;;;10.00;99.90;;;;;;5035359;28;20033;-63
2023/12/11 18:41:58;;;;;;;52.28;42.83;;;9.90;99.90;;;;;;5035315;28;20026;-62
2023/12/11 18:44:23;;;;;;;48.60;40.92;;;9.90;99.90;;;;;;5035244;28;20555;-59
2023/12/11 18:46:49;;;;;;;54.80;44.40;;;9.80;99.90;;;;;;5035095;28;20022;-63
2023/12/11 18:49:15;;;;;;;51.72;42.40;;;9.80;99.90;;;;;;5034983;28;20064;-65
2023/12/11 18:51:41;;;;;;;50.88;42.03;;;9.80;99.90;;;;;;5035064;28;20080;-65
2023/12/11 18:54:07;;;;;;;71.40;56.33;;;9.80;99.90;;;;;;5035072;28;20025;-65
2023/12/11 18:56:33;;;;;;;63.35;51.90;;;9.80;99.90;;;;;;5035031;28;20026;-62
2023/12/11 18:58:59;;;;;;;80.80;65.93;;;9.70;99.90;;;;;;5034889;28;20025;-62
2023/12/11 19:01:24;;;;;;;72.05;60.72;;;9.70;99.90;;;;;;5034742;28;20751;-63
2023/12/11 19:03:50;;;;;;;95.97;74.65;;;9.70;99.90;;;;;;5034952;28;20022;-63
2023/12/11 19:06:17;;;;;;;87.00;72.55;;;9.80;99.90;;;;;;5034821;28;20415;-63
2023/12/11 19:08:43;;;;;;;94.32;75.00;;;9.70;99.90;;;;;;5034686;28;20029;-63
2023/12/11 19:11:11;;;;;;;102.88;82.82;;;9.70;99.90;;;;;;5034846;28;20021;-63
2023/12/11 19:13:37;;;;;;;88.70;73.65;;;9.70;99.90;;;;;;5034999;28;20349;-65
2023/12/11 19:16:03;;;;;;;91.15;75.00;;;9.60;99.90;;;;;;5034417;28;20059;-63
2023/12/11 19:18:29;;;;;;;83.53;68.68;;;9.50;99.90;;;;;;5034555;28;20057;-62
2023/12/11 19:20:55;;;;;;;65.63;53.78;;;9.40;99.90;;;;;;5034595;28;20073;-64
2023/12/11 19:23:21;;;;;;;60.10;50.80;;;9.50;99.90;;;;;;5034426;28;20028;-58
2023/12/11 19:25:47;;;;;;;53.88;44.80;;;9.50;99.90;;;;;;5034546;28;20013;-64
2023/12/11 19:28:12;;;;;;;56.65;45.53;;;9.60;99.90;;;;;;5034514;28;20021;-62
2023/12/11 19:30:38;;;;;;;50.95;42.10;;;9.60;99.90;;;;;;5034092;28;20028;-62
2023/12/11 19:33:04;;;;;;;58.88;47.75;;;9.60;99.90;;;;;;5033472;28;20025;-65
2023/12/11 19:35:29;;;;;;;59.90;47.33;;;9.60;99.90;;;;;;5034240;28;20025;-65
2023/12/11 19:37:55;;;;;;;54.13;43.42;;;9.40;99.90;;;;;;5034105;28;20053;-66
2023/12/11 19:40:21;;;;;;;54.03;41.92;;;9.30;99.90;;;;;;5034176;28;20480;-65
2023/12/11 19:42:48;;;;;;;54.50;43.97;;;9.30;99.90;;;;;;5034216;28;20108;-66
2023/12/11 19:45:14;;;;;;;46.33;38.35;;;9.30;99.90;;;;;;5033954;28;20117;-64
2023/12/11 19:47:41;;;;;;;54.83;42.60;;;9.30;99.90;;;;;;5033724;28;20057;-66
2023/12/11 19:50:08;;;;;;;81.97;60.67;;;9.40;99.90;;;;;;5033938;28;20483;-64
2023/12/11 19:52:33;;;;;;;73.40;56.78;;;9.30;99.90;;;;;;5033960;28;20021;-65
2023/12/11 19:54:59;;;;;;;82.03;59.42;;;9.20;99.90;;;;;;5033816;28;20021;-63
2023/12/11 19:57:25;;;;;;;57.20;43.67;;;9.20;99.90;;;;;;5033800;28;20018;-66
2023/12/11 19:59:51;;;;;;;48.80;38.95;;;9.20;99.90;;;;;;5033609;28;20033;-65
2023/12/11 20:02:16;;;;;;;46.60;37.72;;;9.20;99.90;;;;;;5033729;28;20022;-67
2023/12/11 20:04:42;;;;;;;49.45;37.75;;;9.10;99.90;;;;;;5033737;28;20064;-61
2023/12/11 20:07:09;;;;;;;46.83;36.95;;;9.20;99.90;;;;;;5033741;28;20026;-62
2023/12/11 20:09:35;;;;;;;39.65;30.88;;;9.10;99.90;;;;;;5033664;28;20057;-64
2023/12/11 20:12:02;;;;;;;33.90;25.88;;;9.10;99.90;;;;;;5033636;28;20494;-64
2023/12/11 20:14:28;;;;;;;36.28;28.38;;;9.00;99.90;;;;;;5033515;28;20379;-63
2023/12/11 20:16:53;;;;;;;34.45;26.90;;;9.00;99.90;;;;;;5033457;28;20026;-63
2023/12/11 20:19:19;;;;;;;28.27;22.67;;;9.00;99.90;;;;;;5033422;28;20036;-60
2023/12/11 20:21:45;;;;;;;28.65;23.48;;;8.90;99.90;;;;;;5032270;28;20044;-64
2023/12/11 20:24:11;;;;;;;25.52;21.42;;;8.80;99.90;;;;;;5033417;28;20061;-63
2023/12/11 20:26:37;;;;;;;27.92;23.70;;;8.90;99.90;;;;;;5033383;28;20099;-64
2023/12/11 20:29:02;;;;;;;20.33;15.77;;;9.00;99.90;;;;;;5033133;28;20053;-64
2023/12/11 20:31:28;;;;;;;18.67;16.63;;;9.00;99.90;;;;;;5033360;28;20505;-64
2023/12/11 20:33:54;;;;;;;22.92;19.52;;;8.90;99.90;;;;;;5033218;28;20380;-65
2023/12/11 20:36:23;;;;;;;24.45;21.00;;;8.90;99.90;;;;;;5032060;28;20025;-63
2023/12/11 20:38:49;;;;;;;29.90;23.67;;;8.90;99.90;;;;;;5033242;28;20029;-66
2023/12/11 20:41:18;;;;;;;33.47;26.35;;;8.90;99.90;;;;;;5033198;28;20026;-65
2023/12/11 20:43:44;;;;;;;37.88;28.88;;;9.00;99.90;;;;;;5032868;28;20018;-64
2023/12/11 20:46:10;;;;;;;32.97;27.52;;;9.00;99.90;;;;;;5033295;28;20080;-66
2023/12/11 20:48:35;;;;;;;30.88;27.20;;;9.10;99.90;;;;;;5032861;28;20499;-64
2023/12/11 20:51:03;;;;;;;31.33;26.10;;;9.10;99.90;;;;;;5033128;28;20028;-65
2023/12/11 20:53:28;;;;;;;35.83;29.92;;;9.20;99.90;;;;;;5033182;28;20068;-62
2023/12/11 20:55:54;;;;;;;35.83;30.63;;;9.20;99.90;;;;;;5032971;28;20026;-60
2023/12/11 20:58:20;;;;;;;45.75;36.70;;;9.10;99.90;;;;;;5032866;28;20219;-65
2023/12/11 21:00:45;;;;;;;41.88;32.63;;;9.10;99.90;;;;;;5033027;28;20025;-64
2023/12/11 21:03:11;;;;;;;37.75;30.15;;;9.00;99.90;;;;;;5032930;28;20029;-61
2023/12/11 21:05:38;;;;;;;31.85;26.10;;;8.80;99.90;;;;;;5033127;28;20026;-64
2023/12/11 21:08:04;;;;;;;37.33;28.25;;;8.80;99.90;;;;;;5032897;28;20053;-66
2023/12/11 21:10:29;;;;;;;31.40;24.27;;;8.90;99.90;;;;;;5032961;28;20055;-63
2023/12/11 21:12:55;;;;;;;47.95;36.83;;;9.00;99.90;;;;;;5032610;28;20025;-64
2023/12/11 21:15:21;;;;;;;43.13;31.75;;;9.10;99.90;;;;;;5032943;28;20030;-68
2023/12/11 21:17:46;;;;;;;43.38;33.63;;;9.00;99.90;;;;;;5032886;28;20028;-63
2023/12/11 21:20:13;;;;;;;51.83;39.90;;;9.00;99.90;;;;;;5032870;28;20076;-66